createdAt,value
2018-08-07T00:01:15.541Z,5.23
2018-08-07T00:03:43.930Z,6.40
2018-08-07T00:06:12.401Z,6.47
2018-08-07T00:08:40.911Z,6.27
2018-08-07T00:11:09.236Z,5.33
2018-08-07T00:13:37.639Z,6.87
2018-08-07T00:16:06.121Z,6.00
2018-08-07T00:18:34.413Z,5.70
2018-08-07T00:21:02.897Z,6.90
2018-08-07T00:23:31.366Z,6.47
2018-08-07T00:25:59.845Z,6.07
2018-08-07T00:28:28.376Z,6.20
2018-08-07T00:30:56.830Z,6.40
2018-08-07T00:33:25.231Z,6.77
2018-08-07T00:35:53.623Z,7.47
2018-08-07T00:38:22.001Z,6.27
2018-08-07T00:40:50.434Z,5.60
2018-08-07T00:43:18.827Z,6.70
2018-08-07T00:45:47.296Z,6.87
2018-08-07T00:48:15.640Z,6.70
2018-08-07T00:50:44.067Z,7.63
2018-08-07T00:53:12.486Z,6.63
2018-08-07T00:55:40.922Z,6.30
2018-08-07T00:58:09.293Z,6.67
2018-08-07T01:00:37.661Z,6.90
2018-08-07T01:03:06.071Z,5.10
2018-08-07T01:05:34.474Z,6.90
2018-08-07T01:08:02.899Z,6.97
2018-08-07T01:10:31.355Z,6.30
2018-08-07T01:12:59.742Z,5.50
2018-08-07T01:15:28.133Z,6.33
2018-08-07T01:17:56.457Z,6.23
2018-08-07T01:20:24.862Z,5.90
2018-08-07T01:22:53.194Z,6.60
2018-08-07T01:25:23.634Z,5.87
2018-08-07T01:27:52.103Z,6.43
2018-08-07T01:30:24.156Z,5.60
2018-08-07T01:32:53.049Z,5.47
2018-08-07T01:35:21.620Z,8.40
2018-08-07T01:37:50.027Z,6.30
2018-08-07T01:40:18.486Z,6.60
2018-08-07T01:42:46.987Z,6.57
2018-08-07T01:45:15.399Z,6.50
2018-08-07T01:47:43.761Z,6.70
2018-08-07T01:50:13.405Z,7.10
2018-08-07T01:52:41.735Z,6.07
2018-08-07T01:55:10.892Z,6.30
2018-08-07T01:57:39.305Z,5.90
2018-08-07T02:00:10.346Z,6.03
2018-08-07T02:02:38.644Z,6.77
2018-08-07T02:05:09.194Z,6.10
2018-08-07T02:07:37.721Z,6.27
2018-08-07T02:10:08.479Z,7.00
2018-08-07T02:12:36.963Z,4.90
2018-08-07T02:15:06.697Z,5.87
2018-08-07T02:17:35.276Z,5.53
2018-08-07T02:20:03.825Z,5.57
2018-08-07T02:22:32.276Z,4.97
2018-08-07T02:25:00.658Z,5.20
2018-08-07T02:27:29.026Z,5.20
2018-08-07T02:29:57.514Z,4.90
2018-08-07T02:32:25.875Z,5.20
2018-08-07T02:34:54.237Z,5.60
2018-08-07T02:37:23.375Z,5.23
2018-08-07T02:39:51.704Z,5.80
2018-08-07T02:42:20.170Z,4.53
2018-08-07T02:44:48.592Z,5.03
2018-08-07T02:47:17.061Z,4.70
2018-08-07T02:49:45.465Z,4.70
2018-08-07T02:52:13.893Z,5.10
2018-08-07T02:54:42.429Z,4.90
2018-08-07T02:57:10.825Z,5.77
2018-08-07T02:59:39.247Z,5.03
2018-08-07T03:02:07.914Z,5.10
2018-08-07T03:04:36.387Z,5.53
2018-08-07T03:07:05.027Z,5.40
2018-08-07T03:09:33.416Z,4.50
2018-08-07T03:12:02.089Z,5.50
2018-08-07T03:14:30.712Z,4.77
2018-08-07T03:16:59.118Z,5.40
2018-08-07T03:19:27.538Z,4.90
2018-08-07T03:21:55.954Z,5.57
2018-08-07T03:24:24.381Z,5.47
2018-08-07T03:26:52.706Z,5.60
2018-08-07T03:29:21.135Z,5.47
2018-08-07T03:31:49.470Z,5.27
2018-08-07T03:34:17.858Z,5.20
2018-08-07T03:36:46.273Z,5.20
2018-08-07T03:39:14.693Z,5.50
2018-08-07T03:41:43.165Z,5.60
2018-08-07T03:44:11.537Z,7.70
2018-08-07T03:46:39.912Z,5.50
2018-08-07T03:49:08.599Z,5.37
2018-08-07T03:51:37.165Z,5.50
2018-08-07T03:54:05.596Z,5.07
2018-08-07T03:56:34.070Z,5.60
2018-08-07T03:59:02.436Z,5.50
2018-08-07T04:01:30.815Z,5.57
2018-08-07T04:03:59.241Z,6.10
2018-08-07T04:06:27.614Z,5.77
2018-08-07T04:08:56.032Z,6.80
2018-08-07T04:11:24.536Z,6.30
2018-08-07T04:13:52.910Z,5.67
2018-08-07T04:16:21.286Z,5.37
2018-08-07T04:18:49.719Z,5.03
2018-08-07T04:21:18.049Z,5.60
2018-08-07T04:23:46.426Z,5.53
2018-08-07T04:26:14.836Z,5.63
2018-08-07T04:28:43.255Z,6.43
2018-08-07T04:31:11.647Z,5.53
2018-08-07T04:33:40.099Z,5.73
2018-08-07T04:36:08.215Z,6.17
2018-08-07T04:38:36.662Z,4.90
2018-08-07T04:41:05.163Z,5.10
2018-08-07T04:43:33.674Z,5.43
2018-08-07T04:46:02.078Z,4.73
2018-08-07T04:48:30.513Z,5.67
2018-08-07T04:50:58.953Z,5.20
2018-08-07T04:53:27.285Z,5.13
2018-08-07T04:55:55.673Z,5.20
2018-08-07T04:58:24.146Z,5.97
2018-08-07T05:00:57.019Z,7.83
2018-08-07T05:03:25.880Z,5.40
2018-08-07T05:05:54.513Z,5.97
2018-08-07T05:08:23.182Z,4.90
2018-08-07T05:10:51.563Z,5.10
2018-08-07T05:13:20.001Z,5.63
2018-08-07T05:15:48.437Z,5.00
2018-08-07T05:18:16.875Z,4.63
2018-08-07T05:20:45.327Z,6.03
2018-08-07T05:23:13.752Z,4.60
2018-08-07T05:25:42.187Z,4.80
2018-08-07T05:28:10.612Z,4.70
2018-08-07T05:30:38.982Z,5.50
2018-08-07T05:33:07.396Z,5.60
2018-08-07T05:35:35.710Z,4.40
2018-08-07T05:38:04.141Z,4.57
2018-08-07T05:40:32.605Z,5.07
2018-08-07T05:43:00.930Z,4.83
2018-08-07T05:45:29.500Z,4.73
2018-08-07T05:47:57.891Z,4.53
2018-08-07T05:50:26.464Z,5.20
2018-08-07T05:52:54.850Z,5.07
2018-08-07T05:55:23.208Z,4.77
2018-08-07T05:57:51.617Z,4.00
2018-08-07T06:00:20.644Z,4.50
2018-08-07T06:02:50.179Z,4.53
2018-08-07T06:05:18.847Z,5.20
2018-08-07T06:07:47.854Z,4.23
2018-08-07T06:10:16.212Z,5.03
2018-08-07T06:12:44.662Z,4.80
2018-08-07T06:15:15.282Z,4.30
2018-08-07T06:17:44.647Z,4.73
2018-08-07T06:20:13.230Z,4.87
2018-08-07T06:22:41.622Z,4.60
2018-08-07T06:25:10.594Z,4.47
2018-08-07T06:27:39.344Z,6.77
2018-08-07T06:30:11.129Z,4.67
2018-08-07T06:32:39.622Z,5.53
2018-08-07T06:35:08.409Z,4.90
2018-08-07T06:37:36.851Z,5.60
2018-08-07T06:40:06.910Z,4.50
2018-08-07T06:42:35.615Z,4.43
2018-08-07T06:45:04.485Z,5.07
2018-08-07T06:47:32.923Z,3.83
2018-08-07T06:50:01.409Z,4.27
2018-08-07T06:52:29.842Z,3.80
2018-08-07T06:54:58.349Z,3.53
2018-08-07T06:57:26.737Z,4.83
2018-08-07T06:59:55.191Z,3.87
2018-08-07T07:02:23.638Z,4.80
2018-08-07T07:04:52.099Z,3.60
2018-08-07T07:07:20.513Z,3.70
2018-08-07T07:09:48.865Z,3.47
2018-08-07T07:12:17.224Z,4.17
2018-08-07T07:14:45.744Z,4.33
2018-08-07T07:17:14.055Z,3.47
2018-08-07T07:19:42.475Z,4.77
2018-08-07T07:22:10.838Z,3.97
2018-08-07T07:24:39.317Z,3.90
2018-08-07T07:27:07.781Z,3.93
2018-08-07T07:29:36.240Z,3.90
2018-08-07T07:32:04.623Z,3.80
2018-08-07T07:34:33.149Z,3.67
2018-08-07T07:37:01.600Z,4.07
2018-08-07T07:39:30.003Z,4.13
2018-08-07T07:41:58.154Z,4.00
2018-08-07T07:44:26.514Z,3.20
2018-08-07T07:46:55.129Z,3.70
2018-08-07T07:49:23.535Z,4.60
2018-08-07T07:51:51.967Z,3.80
2018-08-07T07:54:20.296Z,4.10
2018-08-07T07:56:48.738Z,4.20
2018-08-07T07:59:17.217Z,5.07
2018-08-07T08:01:45.598Z,3.93
2018-08-07T08:04:14.331Z,3.60
2018-08-07T08:06:42.799Z,4.50
2018-08-07T08:09:12.077Z,4.07
2018-08-07T08:11:40.529Z,9.07
2018-08-07T08:14:09.009Z,4.17
2018-08-07T08:16:37.360Z,4.40
2018-08-07T08:19:05.792Z,3.90
2018-08-07T08:21:34.166Z,4.13
2018-08-07T08:24:02.579Z,3.30
2018-08-07T08:26:31.925Z,4.10
2018-08-07T08:29:01.741Z,4.40
2018-08-07T08:31:30.190Z,4.00
2018-08-07T08:33:58.732Z,4.40
2018-08-07T08:36:27.865Z,4.43
2018-08-07T08:38:56.336Z,4.50
2018-08-07T08:41:24.644Z,4.70
2018-08-07T08:43:53.324Z,4.43
2018-08-07T08:46:21.668Z,4.90
2018-08-07T08:48:50.127Z,4.00
2018-08-07T08:51:18.574Z,4.20
2018-08-07T08:53:46.994Z,7.03
2018-08-07T08:56:15.402Z,3.90
2018-08-07T08:58:43.999Z,4.73
2018-08-07T09:01:12.420Z,4.70
2018-08-07T09:03:40.875Z,5.03
2018-08-07T09:06:09.300Z,5.00
2018-08-07T09:08:37.694Z,4.43
2018-08-07T09:11:06.693Z,5.00
2018-08-07T09:13:35.019Z,4.50
2018-08-07T09:16:03.390Z,4.47
2018-08-07T09:18:31.843Z,4.33
2018-08-07T09:21:00.350Z,4.73
2018-08-07T09:23:28.884Z,5.00
2018-08-07T09:25:57.609Z,4.93
2018-08-07T09:28:25.775Z,4.33
2018-08-07T09:30:54.182Z,4.83
2018-08-07T09:33:22.577Z,4.47
2018-08-07T09:35:50.992Z,5.10
2018-08-07T09:38:19.420Z,5.30
2018-08-07T09:40:47.830Z,5.00
2018-08-07T09:43:16.237Z,4.93
2018-08-07T09:45:44.703Z,5.00
2018-08-07T09:48:13.489Z,5.00
2018-08-07T09:50:42.008Z,5.37
2018-08-07T09:53:10.438Z,5.00
2018-08-07T09:55:38.896Z,4.83
2018-08-07T09:58:07.485Z,4.70
2018-08-07T10:00:41.415Z,6.37
2018-08-07T10:03:12.106Z,4.40
2018-08-07T10:05:40.471Z,5.00
2018-08-07T10:08:08.943Z,4.93
2018-08-07T10:10:37.333Z,5.30
2018-08-07T10:13:05.800Z,9.03
2018-08-07T10:15:34.189Z,4.90
2018-08-07T10:18:02.756Z,4.80
2018-08-07T10:20:31.484Z,5.40
2018-08-07T10:22:59.999Z,5.87
2018-08-07T10:25:28.412Z,5.83
2018-08-07T10:27:56.900Z,5.37
2018-08-07T10:30:25.946Z,5.30
2018-08-07T10:32:54.766Z,6.63
2018-08-07T10:35:23.284Z,6.00
2018-08-07T10:37:51.716Z,6.47
2018-08-07T10:40:24.849Z,5.77
2018-08-07T10:42:53.419Z,5.70
2018-08-07T10:45:23.043Z,6.63
2018-08-07T10:47:51.652Z,6.57
2018-08-07T10:50:23.305Z,6.20
2018-08-07T10:52:52.049Z,6.30
2018-08-07T10:55:21.158Z,6.43
2018-08-07T10:57:50.906Z,6.57
2018-08-07T11:00:19.741Z,5.77
2018-08-07T11:02:49.238Z,5.83
2018-08-07T11:05:18.289Z,6.03
2018-08-07T11:07:46.712Z,6.23
2018-08-07T11:10:15.601Z,5.80
2018-08-07T11:12:44.159Z,5.50
2018-08-07T11:15:19.929Z,5.80
2018-08-07T11:17:49.571Z,7.40
2018-08-07T11:20:18.204Z,5.10
2018-08-07T11:22:49.031Z,5.60
2018-08-07T11:25:18.712Z,5.60
2018-08-07T11:28:24.336Z,5.93
2018-08-07T11:30:52.747Z,5.63
2018-08-07T11:33:21.125Z,5.30
2018-08-07T11:35:49.590Z,6.40
2018-08-07T11:38:18.051Z,5.33
2018-08-07T11:40:46.504Z,5.30
2018-08-07T11:43:14.897Z,4.93
2018-08-07T11:45:43.372Z,5.97
2018-08-07T11:48:11.763Z,5.70
2018-08-07T11:50:40.121Z,5.60
2018-08-07T11:53:08.616Z,5.33
2018-08-07T11:55:36.983Z,5.07
2018-08-07T11:58:06.127Z,5.47
2018-08-07T12:00:36.354Z,5.73
2018-08-07T12:03:06.539Z,5.60
2018-08-07T12:05:34.976Z,5.70
2018-08-07T12:08:03.614Z,5.33
2018-08-07T12:10:32.106Z,5.77
2018-08-07T12:13:00.534Z,5.80
2018-08-07T12:15:28.928Z,6.40
2018-08-07T12:17:57.313Z,5.87
2018-08-07T12:20:25.738Z,6.90
2018-08-07T12:22:55.216Z,7.40
2018-08-07T12:25:23.663Z,6.53
2018-08-07T12:27:52.125Z,6.17
2018-08-07T12:30:26.173Z,5.90
2018-08-07T12:32:54.709Z,6.00
2018-08-07T12:35:24.016Z,6.07
2018-08-07T12:37:52.520Z,5.90
2018-08-07T12:40:24.090Z,6.23
2018-08-07T12:42:56.165Z,6.00
2018-08-07T12:45:24.658Z,6.37
2018-08-07T12:47:53.100Z,5.80
2018-08-07T12:50:22.168Z,5.70
2018-08-07T12:52:52.580Z,5.83
2018-08-07T12:55:23.080Z,6.30
2018-08-07T12:57:51.957Z,6.13
2018-08-07T13:00:26.386Z,6.37
2018-08-07T13:02:54.972Z,10.17
2018-08-07T13:05:23.419Z,8.03
2018-08-07T13:07:52.699Z,9.50
2018-08-07T13:10:22.232Z,9.73
2018-08-07T13:12:51.530Z,10.43
2018-08-07T13:15:20.958Z,14.20
2018-08-07T13:17:49.856Z,11.77
2018-08-07T13:20:18.353Z,10.17
2018-08-07T13:22:47.433Z,13.83
2018-08-07T13:25:18.022Z,13.20
2018-08-07T13:27:46.571Z,11.13
2018-08-07T13:30:18.139Z,12.23
2018-08-07T13:32:47.101Z,12.90
2018-08-07T13:35:16.182Z,13.40
2018-08-07T13:37:46.280Z,15.60
2018-08-07T13:40:16.371Z,14.70
2018-08-07T13:42:44.829Z,16.93
2018-08-07T13:45:17.240Z,15.47
2018-08-07T13:47:45.703Z,13.90
2018-08-07T13:50:16.860Z,15.77
2018-08-07T13:52:46.145Z,17.33
2018-08-07T13:55:15.933Z,14.93
2018-08-07T13:57:44.954Z,13.27
2018-08-07T14:00:15.751Z,16.13
2018-08-07T14:02:45.016Z,13.23
2018-08-07T14:05:13.965Z,10.73
2018-08-07T14:07:42.339Z,9.53
2018-08-07T14:10:12.135Z,10.63
2018-08-07T14:12:40.946Z,8.37
2018-08-07T14:15:10.929Z,9.70
2018-08-07T14:17:39.789Z,8.43
2018-08-07T14:20:10.465Z,9.27
2018-08-07T14:22:39.524Z,8.63
2018-08-07T14:25:11.960Z,6.90
2018-08-07T14:27:40.735Z,7.33
2018-08-07T14:30:15.524Z,7.97
2018-08-07T14:32:44.019Z,5.97
2018-08-07T14:35:12.445Z,6.97
2018-08-07T14:37:42.726Z,7.30
2018-08-07T14:40:12.826Z,7.53
2018-08-07T14:42:42.731Z,7.30
2018-08-07T14:45:12.933Z,7.57
2018-08-07T14:47:42.292Z,6.23
2018-08-07T14:50:12.574Z,7.83
2018-08-07T14:52:41.424Z,6.87
2018-08-07T14:55:10.877Z,6.70
2018-08-07T14:57:39.819Z,7.73
2018-08-07T15:00:11.521Z,6.87
2018-08-07T15:02:39.988Z,7.30
2018-08-07T15:05:08.751Z,6.37
2018-08-07T15:07:37.522Z,6.90
2018-08-07T15:10:11.343Z,6.93
2018-08-07T15:12:39.802Z,7.77
2018-08-07T15:15:11.331Z,6.30
2018-08-07T15:17:39.859Z,6.37
2018-08-07T15:20:10.062Z,7.37
2018-08-07T15:22:38.732Z,8.63
2018-08-07T15:25:09.827Z,7.30
2018-08-07T15:27:38.313Z,6.90
2018-08-07T15:30:08.534Z,7.37
2018-08-07T15:32:37.006Z,6.37
2018-08-07T15:35:05.502Z,7.37
2018-08-07T15:37:34.033Z,6.60
2018-08-07T15:40:02.423Z,7.23
2018-08-07T15:42:30.987Z,6.40
2018-08-07T15:44:59.354Z,6.70
2018-08-07T15:47:27.738Z,6.87
2018-08-07T15:49:56.115Z,7.20
2018-08-07T15:52:24.497Z,6.50
2018-08-07T15:54:52.926Z,6.47
2018-08-07T15:57:21.305Z,6.60
2018-08-07T15:59:49.748Z,7.60
2018-08-07T16:02:18.225Z,7.43
2018-08-07T16:04:46.882Z,6.37
2018-08-07T16:07:15.436Z,6.40
2018-08-07T16:09:43.893Z,7.20
2018-08-07T16:12:12.470Z,7.23
2018-08-07T16:14:40.899Z,7.80
2018-08-07T16:17:09.361Z,7.13
2018-08-07T16:19:37.760Z,8.40
2018-08-07T16:22:06.560Z,7.70
2018-08-07T16:24:34.977Z,6.67
2018-08-07T16:27:03.481Z,7.20
2018-08-07T16:29:31.931Z,7.70
2018-08-07T16:32:00.369Z,8.47
2018-08-07T16:34:28.813Z,6.93
2018-08-07T16:36:57.285Z,9.00
2018-08-07T16:39:25.797Z,8.43
2018-08-07T16:41:54.239Z,8.40
2018-08-07T16:44:22.672Z,8.00
2018-08-07T16:46:51.138Z,7.40
2018-08-07T16:49:19.709Z,7.70
2018-08-07T16:51:48.165Z,7.97
2018-08-07T16:54:16.652Z,8.37
2018-08-07T16:56:44.999Z,7.13
2018-08-07T16:59:13.421Z,7.23
2018-08-07T17:01:41.845Z,7.07
2018-08-07T17:04:10.243Z,7.37
2018-08-07T17:06:38.612Z,6.90
2018-08-07T17:09:10.042Z,7.50
2018-08-07T17:11:38.555Z,7.40
2018-08-07T17:14:07.054Z,7.40
2018-08-07T17:16:35.739Z,8.17
2018-08-07T17:19:04.248Z,8.07
2018-08-07T17:21:32.783Z,8.90
2018-08-07T17:24:01.487Z,9.57
2018-08-07T17:26:30.055Z,9.73
2018-08-07T17:28:58.502Z,9.47
2018-08-07T17:31:27.119Z,8.43
2018-08-07T17:33:55.709Z,10.10
2018-08-07T17:36:24.223Z,9.30
2018-08-07T17:38:52.630Z,9.53
2018-08-07T17:41:21.000Z,7.43
2018-08-07T17:43:49.375Z,8.27
2018-08-07T17:46:17.765Z,7.27
2018-08-07T17:48:46.242Z,8.07
2018-08-07T17:51:14.573Z,9.03
2018-08-07T17:53:43.032Z,7.67
2018-08-07T17:56:11.473Z,8.70
2018-08-07T17:58:40.008Z,9.40
2018-08-07T18:01:08.669Z,8.57
2018-08-07T18:03:37.138Z,9.40
2018-08-07T18:06:05.677Z,9.40
2018-08-07T18:08:34.224Z,8.70
2018-08-07T18:11:02.652Z,9.63
2018-08-07T18:13:31.306Z,8.40
2018-08-07T18:15:59.778Z,8.07
2018-08-07T18:18:29.139Z,7.27
2018-08-07T18:20:57.638Z,8.30
2018-08-07T18:23:26.007Z,8.50
2018-08-07T18:25:54.527Z,7.50
2018-08-07T18:28:23.079Z,9.17
2018-08-07T18:30:51.546Z,9.83
2018-08-07T18:33:20.073Z,9.00
2018-08-07T18:35:48.521Z,8.80
2018-08-07T18:38:16.933Z,7.57
2018-08-07T18:40:45.347Z,8.43
2018-08-07T18:43:13.785Z,7.87
2018-08-07T18:45:42.259Z,8.07
2018-08-07T18:48:10.731Z,8.40
2018-08-07T18:50:39.166Z,6.80
2018-08-07T18:53:07.639Z,8.57
2018-08-07T18:55:36.192Z,7.50
2018-08-07T18:58:04.664Z,7.60
2018-08-07T19:00:33.178Z,8.37
2018-08-07T19:03:01.569Z,7.50
2018-08-07T19:05:29.965Z,6.73
2018-08-07T19:07:58.397Z,7.40
2018-08-07T19:10:26.813Z,7.53
2018-08-07T19:12:55.268Z,8.20
2018-08-07T19:15:23.704Z,7.77
2018-08-07T19:17:52.034Z,8.07
2018-08-07T19:20:21.716Z,9.00
2018-08-07T19:22:50.137Z,8.37
2018-08-07T19:25:19.502Z,7.20
2018-08-07T19:27:47.913Z,8.10
2018-08-07T19:30:19.218Z,7.43
2018-08-07T19:32:47.681Z,8.17
2018-08-07T19:35:16.142Z,7.77
2018-08-07T19:37:44.618Z,8.33
2018-08-07T19:40:15.570Z,8.20
2018-08-07T19:42:44.667Z,7.87
2018-08-07T19:45:13.547Z,7.60
2018-08-07T19:47:42.674Z,8.00
2018-08-07T19:50:12.771Z,8.20
2018-08-07T19:52:41.430Z,7.50
2018-08-07T19:55:12.986Z,7.60
2018-08-07T19:57:41.676Z,8.03
2018-08-07T20:00:15.450Z,7.80
2018-08-07T20:02:43.907Z,8.20
2018-08-07T20:05:12.417Z,7.67
2018-08-07T20:07:41.116Z,8.13
2018-08-07T20:10:11.060Z,9.40
2018-08-07T20:12:39.775Z,9.00
2018-08-07T20:15:11.307Z,8.30
2018-08-07T20:17:39.962Z,9.20
2018-08-07T20:20:09.475Z,7.90
2018-08-07T20:22:37.860Z,9.10
2018-08-07T20:25:07.435Z,8.63
2018-08-07T20:27:36.037Z,7.63
2018-08-07T20:30:07.677Z,8.23
2018-08-07T20:32:36.169Z,7.90
2018-08-07T20:35:05.804Z,7.90
2018-08-07T20:37:34.516Z,9.90
2018-08-07T20:40:02.948Z,8.80
2018-08-07T20:42:31.572Z,8.27
2018-08-07T20:44:59.950Z,8.70
2018-08-07T20:47:28.425Z,8.57
2018-08-07T20:49:56.843Z,8.40
2018-08-07T20:52:25.312Z,8.07
2018-08-07T20:54:53.758Z,9.47
2018-08-07T20:57:22.132Z,9.17
2018-08-07T20:59:50.530Z,11.43
2018-08-07T21:02:18.997Z,9.60
2018-08-07T21:04:47.447Z,9.37
2018-08-07T21:07:15.858Z,8.30
2018-08-07T21:09:44.256Z,8.57
2018-08-07T21:12:12.648Z,8.80
2018-08-07T21:14:41.080Z,9.53
2018-08-07T21:17:09.537Z,9.50
2018-08-07T21:19:37.869Z,8.50
2018-08-07T21:22:06.268Z,9.13
2018-08-07T21:24:34.726Z,8.80
2018-08-07T21:27:03.089Z,9.73
2018-08-07T21:29:31.636Z,9.80
2018-08-07T21:32:00.059Z,8.30
2018-08-07T21:34:28.395Z,8.20
2018-08-07T21:36:56.895Z,9.80
2018-08-07T21:39:25.339Z,8.80
2018-08-07T21:41:53.771Z,9.20
2018-08-07T21:44:22.177Z,9.37
2018-08-07T21:46:50.708Z,10.00
2018-08-07T21:49:19.120Z,9.67
2018-08-07T21:51:47.512Z,9.40
2018-08-07T21:54:15.910Z,9.10
2018-08-07T21:56:44.354Z,10.13
2018-08-07T21:59:12.873Z,9.53
2018-08-07T22:01:41.407Z,9.23
2018-08-07T22:04:09.799Z,10.80
2018-08-07T22:06:38.276Z,10.37
2018-08-07T22:09:09.039Z,9.50
2018-08-07T22:11:37.765Z,9.67
2018-08-07T22:14:06.339Z,8.47
2018-08-07T22:16:34.939Z,10.37
2018-08-07T22:19:03.355Z,10.50
2018-08-07T22:21:33.937Z,9.90
2018-08-07T22:24:02.432Z,10.67
2018-08-07T22:26:30.969Z,9.67
2018-08-07T22:28:59.274Z,10.00
2018-08-07T22:31:27.843Z,10.13
2018-08-07T22:33:56.318Z,11.23
2018-08-07T22:36:25.279Z,9.57
2018-08-07T22:38:53.981Z,11.07
2018-08-07T22:41:22.480Z,10.30
2018-08-07T22:43:51.014Z,10.70
2018-08-07T22:46:21.645Z,11.87
2018-08-07T22:48:51.268Z,11.93
2018-08-07T22:51:19.805Z,10.40
2018-08-07T22:53:48.423Z,11.13
2018-08-07T22:56:16.851Z,10.80
2018-08-07T22:58:45.362Z,10.63
2018-08-07T23:01:13.928Z,10.70
2018-08-07T23:03:42.377Z,11.03
2018-08-07T23:06:10.782Z,10.80
2018-08-07T23:08:39.244Z,10.90
2018-08-07T23:11:07.711Z,10.70
2018-08-07T23:13:36.103Z,10.50
2018-08-07T23:16:04.813Z,10.77
2018-08-07T23:18:33.532Z,10.50
2018-08-07T23:21:02.008Z,11.13
2018-08-07T23:23:30.354Z,10.90
2018-08-07T23:25:58.637Z,11.80
2018-08-07T23:28:26.963Z,10.30
2018-08-07T23:30:55.313Z,11.17
2018-08-07T23:33:23.635Z,10.70
2018-08-07T23:35:51.962Z,10.23
2018-08-07T23:38:20.289Z,10.40
2018-08-07T23:40:48.601Z,10.73
2018-08-07T23:43:16.951Z,11.30
2018-08-07T23:45:45.261Z,10.90
2018-08-07T23:48:13.546Z,9.37
2018-08-07T23:50:41.841Z,10.87
2018-08-07T23:53:10.198Z,10.00
2018-08-07T23:55:38.524Z,10.20
2018-08-07T23:58:07.000Z,9.77
